• Join FlightAware (Why Join?)
  • Login
  • US Flag 
05:50PM EST


 

Airport Tracker/Info


-or-


 

Live Flight TrackerFlight Track Log ✈ N779NC ✈ 03-Jul-2013 ✈ KDAY - KATL

Flight Track Log - Related Links

Times and Time Zones

All times are in EDT time to prevent confusion due to time zone crossing. See the N779NC flight status page for this flight to view local times or setup timezone preferences in your user account.

Time Position Orientation Groundspeed Altitude Reporting Facility
EDT Latitude Longitude Course Direction KTS MPH feet Rate Location/Type
10:40AM 39.8842 -84.2119 180° South 158 182 1,700  Level Indianapolis Center
10:41AM 39.8436 -84.2583 221° Southwest 203 234 3,600 1,560 Climbing Indianapolis Center
10:42AM 39.8078 -84.3250 235° Southwest 214 246 5,100 1,740 Climbing Indianapolis Center
10:43AM 39.7653 -84.4017 234° Southwest 248 285 7,200 1,980 Climbing Indianapolis Center
10:44AM 39.6608 -84.6004 229° Southwest  Level FlightAware Approximate
10:44AM 39.7228 -84.4814 235° Southwest 262 302 9,300  Level Indianapolis Center
10:45AM 39.6099 -84.7000 180° South  Level FlightAware Approximate
10:45AM 39.6783 -84.5594 234° Southwest 266 306 11,400  Level Indianapolis Center
10:47AM 39.6039 -84.5722 188° South 270 311 13,200 1,500 Climbing Indianapolis Center
10:48AM 39.5111 -84.5969 192° South 287 330 14,500 1,200 Climbing Indianapolis Center
10:49AM 39.4189 -84.6186 190° South 322 371 15,700 1,380 Climbing Indianapolis Center
10:50AM 39.3239 -84.6422 191° South 341 392 17,400 1,860 Climbing Indianapolis Center
10:51AM 39.2272 -84.6631 189° South 348 400 19,600 1,800 Climbing Indianapolis Center
10:52AM 39.1353 -84.6756 186° South 332 382 21,200 1,200 Climbing Indianapolis Center
10:53AM 39.0464 -84.7006 192° South 328 377 22,100 960 Climbing Indianapolis Center
10:54AM 38.9578 -84.7433 201° Southwest 338 389 23,200 1,020 Climbing Indianapolis Center
10:55AM 38.8628 -84.7981 204° Southwest 343 395 24,300 900 Climbing Indianapolis Center
10:56AM 38.7736 -84.8408 201° Southwest 343 395 25,100 720 Climbing Indianapolis Center
10:57AM 38.6847 -84.8069 163° South 370 426 25,800 720 Climbing Indianapolis Center
10:58AM 38.6172 -84.6928 127° Southeast 386 444 26,600 540 Climbing Indianapolis Center
10:59AM 38.5478 -84.5828 129° Southeast 395 455 27,000 360 Climbing Indianapolis Center
11:00AM 38.4672 -84.4728 133° Southeast 421 484 27,400 480 Climbing Indianapolis Center
11:01AM 38.3686 -84.3461 135° Southeast 430 495 28,000 240 Climbing Indianapolis Center
11:02AM 38.2825 -84.2325 134° Southeast 441 507 28,000  Level Indianapolis Center
11:03AM 38.2019 -84.1147 131° Southeast 443 510 28,000  Level Indianapolis Center
11:04AM 38.1200 -83.9986 132° Southeast 440 506 28,000  Level Indianapolis Center
11:05AM 38.0275 -83.8983 139° Southeast 437 503 28,000  Level Indianapolis Center
11:06AM 37.9325 -83.8006 141° Southeast 439 505 28,000  Level Indianapolis Center
11:07AM 37.8378 -83.7042 141° Southeast 436 502 28,000  Level Indianapolis Center
11:08AM 37.7250 -83.5953 143° Southeast 437 503 28,000 240 Level Indianapolis Center
11:09AM 37.6256 -83.5061 145° Southeast 438 504 28,500 660 Climbing Indianapolis Center
11:10AM 37.5292 -83.4142 143° Southeast 434 499 29,400 840 Climbing Indianapolis Center
11:11AM 37.4383 -83.3158 139° Southeast 430 495 30,300 840 Climbing Indianapolis Center
11:12AM 37.3417 -83.2442 149° Southeast 408 470 31,200 720 Climbing Indianapolis Center
11:13AM 37.2308 -83.2222 171° South 404 465 31,800 540 Climbing Indianapolis Center
11:14AM 37.1014 -83.2017 173° South 403 464 32,400 540 Climbing Indianapolis Center
11:15AM 36.9911 -83.1853 173° South 402 463 33,000 480 Climbing Indianapolis Center
11:16AM 36.8803 -83.1675 173° South 404 465 33,500 480 Climbing Indianapolis Center
11:17AM 36.7703 -83.1539 174° South 403 464 34,000 240 Climbing Indianapolis Center
11:18AM 36.6603 -83.1392 174° South 400 460 34,000  Level Indianapolis Center
11:19AM 36.5492 -83.1256 174° South 402 463 34,000  Level Indianapolis Center
11:20AM 36.4192 -83.1161 177° South 401 461 34,000  Level Indianapolis Center
11:21AM 36.3383 -83.1161 180° South 404 465 34,000  Level Atlanta Center
11:22AM 36.2300 -83.1122 178° South 404 465 34,000  Level Atlanta Center
11:23AM 36.1172 -83.1006 175° South 404 465 34,000  Level Atlanta Center
11:25AM 35.8978 -83.0544 170° South 409 471 34,000  Level Atlanta Center
11:26AM 35.7853 -83.0531 179° South 409 471 34,000  Level Atlanta Center
11:27AM 35.6769 -83.0750 189° South 399 459 34,000  Level Atlanta Center
11:28AM 35.5708 -83.1042 193° South 399 459 34,000 -120 Level Atlanta Center
11:29AM 35.4625 -83.1361 194° South 399 459 33,800 -900 Descending Atlanta Center
11:30AM 35.3564 -83.1678 194° South 394 453 32,300 -1,800 Descending Atlanta Center
11:31AM 35.2481 -83.2019 194° South 401 461 30,300 -1,860 Descending Atlanta Center
11:32AM 35.1397 -83.2233 189° South 401 461 28,600 -1,740 Descending Atlanta Center
11:33AM 35.0186 -83.2144 177° South 418 481 26,900 -1,560 Descending Atlanta Center
11:34AM 34.9039 -83.2333 188° South 425 489 25,500 -1,440 Descending Atlanta Center
11:35AM 34.7914 -83.2647 193° South 425 489 24,100 -1,440 Descending Atlanta Center
11:36AM 34.6792 -83.3114 199° South 425 489 22,700 -1,320 Descending Atlanta Center
11:37AM 34.5856 -83.3981 217° Southwest 406 467 21,500 -1,320 Descending Atlanta Center
11:38AM 34.5089 -83.4642 215° Southwest 367 422 20,100 -1,800 Descending Atlanta Center
11:39AM 34.4422 -83.5325 220° Southwest 331 381 18,000 -1,980 Descending Atlanta Center
11:40AM 34.3694 -83.5908 213° Southwest 317 365 16,200 -1,680 Descending Atlanta Center
11:41AM 34.3300 -83.6739 240° Southwest 311 358 14,700 -1,200 Descending Atlanta Center
11:42AM 34.2781 -83.7372 225° Southwest 280 322 13,900 -360 Descending Atlanta Center
11:43AM 34.2136 -83.7950 217° Southwest 280 322 14,000  Climbing Atlanta Center
11:44AM 34.1678 -83.8606 230° Southwest 287 330 14,000  Level Atlanta Center
11:45AM 34.1178 -83.9383 232° Southwest 295 339 14,000 -360 Level Atlanta Center
11:46AM 34.0667 -83.9833 216° Southwest 279 321 13,400 -1,140 Descending Atlanta TRACON
11:47AM 34.0167 -84.0500 228° Southwest 272 313 12,100 -720 Descending Atlanta TRACON
11:48AM 33.9500 -84.1167 220° Southwest 278 320 12,000 -60 Descending Atlanta TRACON
11:49AM 33.9000 -84.1667 220° Southwest 276 318 12,000  Level Atlanta TRACON
11:50AM 33.8333 -84.2167 212° Southwest 277 319 12,000  Level Atlanta TRACON
11:51AM 33.7833 -84.2833 228° Southwest 229 264 12,000 -240 Level Atlanta TRACON
11:52AM 33.7500 -84.3333 231° Southwest 231 266 11,600 -1,200 Descending Atlanta TRACON
11:53AM 33.7500 -84.4167 270° West 255 293 9,600 -1,800 Descending Atlanta TRACON
11:54AM 33.7500 -84.5000 270° West 245 282 8,000 -1,500 Descending Atlanta TRACON
11:55AM 33.7500 -84.5833 270° West 227 261 6,500 -1,440 Descending Atlanta TRACON
11:56AM 33.7333 -84.6667 256° West 219 252 5,000 -780 Descending Atlanta TRACON
11:57AM 33.7167 -84.7333 253° West 223 257 5,000  Level Atlanta TRACON
11:58AM 33.6667 -84.7333 180° South 183 211 5,000 -60 Level Atlanta TRACON
11:59AM 33.6333 -84.7000 140° Southeast 179 206 4,900 -600 Descending Atlanta TRACON
12:00PM 33.6333 -84.6333 90° East 186 214 3,900 -960 Descending Atlanta TRACON
12:01PM 33.6333 -84.5667 90° East 181 208 3,000 -900 Descending Atlanta TRACON